sensor_id;sensor_type;location;lat;lon;timestamp;pressure;altitude;pressure_sealevel;temperature;humidity
81937;BME280;71432;56.558;9.036;2023-07-22T00:00:41;100718.44;;;23.15;46.93
81937;BME280;71432;56.558;9.036;2023-07-22T00:03:06;100723.72;;;23.15;47.16
81937;BME280;71432;56.558;9.036;2023-07-22T00:05:31;100710.00;;;23.11;46.72
81937;BME280;71432;56.558;9.036;2023-07-22T00:07:57;100720.41;;;23.13;47.05
81937;BME280;71432;56.558;9.036;2023-07-22T00:10:22;100720.41;;;23.13;47.00
81937;BME280;71432;56.558;9.036;2023-07-22T00:12:47;100713.63;;;23.10;46.93
81937;BME280;71432;56.558;9.036;2023-07-22T00:15:13;100714.31;;;23.12;47.27
81937;BME280;71432;56.558;9.036;2023-07-22T00:17:39;100713.47;;;23.12;47.03
81937;BME280;71432;56.558;9.036;2023-07-22T00:20:05;100711.16;;;23.09;46.79
81937;BME280;71432;56.558;9.036;2023-07-22T00:22:32;100700.91;;;23.05;46.88
81937;BME280;71432;56.558;9.036;2023-07-22T00:24:57;100707.38;;;23.11;46.92
81937;BME280;71432;56.558;9.036;2023-07-22T00:27:25;100716.97;;;23.12;47.09
81937;BME280;71432;56.558;9.036;2023-07-22T00:29:51;100711.00;;;23.10;46.87
81937;BME280;71432;56.558;9.036;2023-07-22T00:32:16;100710.31;;;23.08;47.26
81937;BME280;71432;56.558;9.036;2023-07-22T00:34:42;100708.00;;;23.05;47.02
81937;BME280;71432;56.558;9.036;2023-07-22T00:37:07;100709.66;;;23.06;47.26
81937;BME280;71432;56.558;9.036;2023-07-22T00:39:32;100711.31;;;23.07;46.89
81937;BME280;71432;56.558;9.036;2023-07-22T00:41:58;100712.97;;;23.08;47.10
81937;BME280;71432;56.558;9.036;2023-07-22T00:44:23;100709.00;;;23.04;47.18
81937;BME280;71432;56.558;9.036;2023-07-22T00:46:49;100713.97;;;23.07;46.97
81937;BME280;71432;56.558;9.036;2023-07-22T00:49:18;100713.28;;;23.05;47.14
81937;BME280;71432;56.558;9.036;2023-07-22T00:51:44;100713.78;;;23.09;46.91
81937;BME280;71432;56.558;9.036;2023-07-22T00:54:09;100710.81;;;23.03;47.18
81937;BME280;71432;56.558;9.036;2023-07-22T00:56:36;100701.75;;;23.06;47.11
81937;BME280;71432;56.558;9.036;2023-07-22T00:59:01;100707.84;;;23.07;47.00
81937;BME280;71432;56.558;9.036;2023-07-22T01:01:27;100705.38;;;23.05;47.17
81937;BME280;71432;56.558;9.036;2023-07-22T01:03:52;100695.28;;;23.00;47.14
81937;BME280;71432;56.558;9.036;2023-07-22T01:06:18;100700.09;;;23.05;46.84
81937;BME280;71432;56.558;9.036;2023-07-22T01:08:45;100696.13;;;23.01;47.00
81937;BME280;71432;56.558;9.036;2023-07-22T01:11:11;100699.25;;;23.04;46.99
81937;BME280;71432;56.558;9.036;2023-07-22T01:13:38;100689.84;;;23.02;47.02
81937;BME280;71432;56.558;9.036;2023-07-22T01:16:04;100689.84;;;23.02;46.93
81937;BME280;71432;56.558;9.036;2023-07-22T01:18:30;100690.69;;;23.02;46.42
81937;BME280;71432;56.558;9.036;2023-07-22T01:20:56;100693.34;;;23.02;47.03
81937;BME280;71432;56.558;9.036;2023-07-22T01:23:21;100694.97;;;23.03;46.84
81937;BME280;71432;56.558;9.036;2023-07-22T01:25:47;100688.19;;;23.01;47.08
81937;BME280;71432;56.558;9.036;2023-07-22T01:28:12;100698.09;;;22.99;46.83
81937;BME280;71432;56.558;9.036;2023-07-22T01:30:38;100689.19;;;23.00;46.95
81937;BME280;71432;56.558;9.036;2023-07-22T01:33:03;100690.00;;;23.00;47.16
81937;BME280;71432;56.558;9.036;2023-07-22T01:35:28;100688.69;;;22.96;46.97
81937;BME280;71432;56.558;9.036;2023-07-22T01:37:54;100679.44;;;23.00;46.94
81937;BME280;71432;56.558;9.036;2023-07-22T01:40:20;100682.41;;;22.97;47.05
81937;BME280;71432;56.558;9.036;2023-07-22T01:42:45;100677.97;;;22.98;46.96
81937;BME280;71432;56.558;9.036;2023-07-22T01:45:11;100682.09;;;23.00;46.89
81937;BME280;71432;56.558;9.036;2023-07-22T01:47:37;100674.66;;;22.96;46.78
81937;BME280;71432;56.558;9.036;2023-07-22T01:50:04;100681.75;;;22.95;47.00
81937;BME280;71432;56.558;9.036;2023-07-22T01:52:31;100675.34;;;22.98;46.87
81937;BME280;71432;56.558;9.036;2023-07-22T01:54:57;100675.16;;;22.99;46.88
81937;BME280;71432;56.558;9.036;2023-07-22T01:57:22;100672.69;;;22.98;46.80
81937;BME280;71432;56.558;9.036;2023-07-22T01:59:47;100664.94;;;22.96;47.03
81937;BME280;71432;56.558;9.036;2023-07-22T02:02:13;100667.56;;;22.96;46.99
81937;BME280;71432;56.558;9.036;2023-07-22T02:04:38;100663.44;;;22.94;47.05
81937;BME280;71432;56.558;9.036;2023-07-22T02:07:04;100665.75;;;22.97;47.00
81937;BME280;71432;56.558;9.036;2023-07-22T02:09:29;100662.63;;;22.93;47.00
81937;BME280;71432;56.558;9.036;2023-07-22T02:11:54;100661.09;;;22.91;47.02
81937;BME280;71432;56.558;9.036;2023-07-22T02:14:20;100661.44;;;22.96;46.94
81937;BME280;71432;56.558;9.036;2023-07-22T02:16:45;100673.00;;;22.95;47.10
81937;BME280;71432;56.558;9.036;2023-07-22T02:19:10;100665.06;;;22.95;47.12
81937;BME280;71432;56.558;9.036;2023-07-22T02:21:36;100658.31;;;22.92;46.82
81937;BME280;71432;56.558;9.036;2023-07-22T02:24:01;100662.63;;;22.93;46.81
81937;BME280;71432;56.558;9.036;2023-07-22T02:26:27;100662.78;;;22.92;46.73
81937;BME280;71432;56.558;9.036;2023-07-22T02:28:52;100661.09;;;22.91;46.75
81937;BME280;71432;56.558;9.036;2023-07-22T02:31:17;100663.25;;;22.95;46.91
81937;BME280;71432;56.558;9.036;2023-07-22T02:33:42;100668.72;;;22.94;47.04
81937;BME280;71432;56.558;9.036;2023-07-22T02:36:08;100666.09;;;22.94;46.87
81937;BME280;71432;56.558;9.036;2023-07-22T02:38:34;100659.28;;;22.91;46.87
81937;BME280;71432;56.558;9.036;2023-07-22T02:41:03;100669.84;;;22.91;46.84
81937;BME280;71432;56.558;9.036;2023-07-22T02:43:30;100662.91;;;22.90;46.91
81937;BME280;71432;56.558;9.036;2023-07-22T02:45:56;100660.47;;;22.89;46.87
81937;BME280;71432;56.558;9.036;2023-07-22T02:48:21;100665.75;;;22.89;46.72
81937;BME280;71432;56.558;9.036;2023-07-22T02:50:46;100672.50;;;22.91;46.82
81937;BME280;71432;56.558;9.036;2023-07-22T02:53:12;100661.94;;;22.91;46.87
81937;BME280;71432;56.558;9.036;2023-07-22T02:55:37;100665.91;;;22.87;46.74
81937;BME280;71432;56.558;9.036;2023-07-22T02:58:02;100668.19;;;22.90;46.69
81937;BME280;71432;56.558;9.036;2023-07-22T03:00:28;100669.84;;;22.91;46.61
81937;BME280;71432;56.558;9.036;2023-07-22T03:02:54;100673.31;;;22.92;46.65
81937;BME280;71432;56.558;9.036;2023-07-22T03:05:26;100656.50;;;22.85;46.72
81937;BME280;71432;56.558;9.036;2023-07-22T03:07:53;100666.25;;;22.92;46.99
81937;BME280;71432;56.558;9.036;2023-07-22T03:10:19;100661.59;;;22.86;46.86
81937;BME280;71432;56.558;9.036;2023-07-22T03:12:44;100669.69;;;22.85;46.64
81937;BME280;71432;56.558;9.036;2023-07-22T03:15:09;100673.81;;;22.87;46.83
81937;BME280;71432;56.558;9.036;2023-07-22T03:17:36;100679.91;;;22.88;46.86
81937;BME280;71432;56.558;9.036;2023-07-22T03:20:02;100682.06;;;22.84;46.87
81937;BME280;71432;56.558;9.036;2023-07-22T03:22:30;100679.41;;;22.84;46.66
81937;BME280;71432;56.558;9.036;2023-07-22T03:24:56;100667.34;;;22.82;46.95
81937;BME280;71432;56.558;9.036;2023-07-22T03:27:21;100676.78;;;22.84;46.89
81937;BME280;71432;56.558;9.036;2023-07-22T03:29:47;100677.63;;;22.85;46.86
81937;BME280;71432;56.558;9.036;2023-07-22T03:32:12;100679.25;;;22.86;47.00
81937;BME280;71432;56.558;9.036;2023-07-22T03:34:37;100673.31;;;22.84;46.76
81937;BME280;71432;56.558;9.036;2023-07-22T03:37:03;100671.66;;;22.83;46.79
81937;BME280;71432;56.558;9.036;2023-07-22T03:39:28;100679.41;;;22.84;46.52
81937;BME280;71432;56.558;9.036;2023-07-22T03:41:53;100672.47;;;22.83;46.99
81937;BME280;71432;56.558;9.036;2023-07-22T03:44:19;100678.75;;;22.82;47.12
81937;BME280;71432;56.558;9.036;2023-07-22T03:46:44;100680.41;;;22.83;47.01
81937;BME280;71432;56.558;9.036;2023-07-22T03:49:09;100678.75;;;22.82;46.79
81937;BME280;71432;56.558;9.036;2023-07-22T03:51:35;100688.16;;;22.85;47.10
81937;BME280;71432;56.558;9.036;2023-07-22T03:54:00;100690.97;;;22.83;46.85
81937;BME280;71432;56.558;9.036;2023-07-22T03:56:26;100680.25;;;22.85;46.86
81937;BME280;71432;56.558;9.036;2023-07-22T03:58:52;100675.28;;;22.82;46.69
81937;BME280;71432;56.558;9.036;2023-07-22T04:01:18;100696.09;;;22.85;46.75
81937;BME280;71432;56.558;9.036;2023-07-22T04:03:43;100680.56;;;22.82;46.67
81937;BME280;71432;56.558;9.036;2023-07-22T04:06:08;100681.22;;;22.84;46.82
81937;BME280;71432;56.558;9.036;2023-07-22T04:08:34;100684.53;;;22.86;46.63
81937;BME280;71432;56.558;9.036;2023-07-22T04:10:59;100681.88;;;22.86;46.87
81937;BME280;71432;56.558;9.036;2023-07-22T04:13:26;100676.94;;;22.83;46.75
81937;BME280;71432;56.558;9.036;2023-07-22T04:15:51;100683.69;;;22.85;46.79
81937;BME280;71432;56.558;9.036;2023-07-22T04:18:18;100673.47;;;22.82;46.88
81937;BME280;71432;56.558;9.036;2023-07-22T04:20:45;100677.63;;;22.85;46.70
81937;BME280;71432;56.558;9.036;2023-07-22T04:23:11;100680.06;;;22.86;46.58
81937;BME280;71432;56.558;9.036;2023-07-22T04:25:40;100682.41;;;22.89;46.75
81937;BME280;71432;56.558;9.036;2023-07-22T04:28:06;100673.81;;;22.87;46.70
81937;BME280;71432;56.558;9.036;2023-07-22T04:30:33;100692.47;;;22.94;46.63
81937;BME280;71432;56.558;9.036;2023-07-22T04:32:58;100685.38;;;22.94;46.50
81937;BME280;71432;56.558;9.036;2023-07-22T04:35:23;100682.06;;;22.92;46.68
81937;BME280;71432;56.558;9.036;2023-07-22T04:37:48;100689.03;;;22.93;46.49
81937;BME280;71432;56.558;9.036;2023-07-22T04:40:14;100695.44;;;22.91;46.70
81937;BME280;71432;56.558;9.036;2023-07-22T04:42:41;100682.22;;;22.91;46.67
81937;BME280;71432;56.558;9.036;2023-07-22T04:45:08;100678.09;;;22.88;46.70
81937;BME280;71432;56.558;9.036;2023-07-22T04:47:35;100677.63;;;22.85;46.54
81937;BME280;71432;56.558;9.036;2023-07-22T04:50:00;100680.91;;;22.87;46.61
81937;BME280;71432;56.558;9.036;2023-07-22T04:52:26;100684.38;;;22.87;46.55
81937;BME280;71432;56.558;9.036;2023-07-22T04:54:51;100678.09;;;22.88;46.48
81937;BME280;71432;56.558;9.036;2023-07-22T04:57:16;100688.47;;;22.90;46.60
81937;BME280;71432;56.558;9.036;2023-07-22T04:59:42;100679.59;;;22.91;46.71
81937;BME280;71432;56.558;9.036;2023-07-22T05:02:07;100677.94;;;22.90;46.56
81937;BME280;71432;56.558;9.036;2023-07-22T05:04:33;100683.56;;;22.95;46.51
81937;BME280;71432;56.558;9.036;2023-07-22T05:06:58;100677.28;;;22.96;46.45
81937;BME280;71432;56.558;9.036;2023-07-22T05:09:24;100674.16;;;23.00;46.40
81937;BME280;71432;56.558;9.036;2023-07-22T05:11:49;100672.22;;;23.02;46.30
81937;BME280;71432;56.558;9.036;2023-07-22T05:14:14;100688.22;;;23.09;46.21
81937;BME280;71432;56.558;9.036;2023-07-22T05:16:40;100690.38;;;23.14;46.26
81937;BME280;71432;56.558;9.036;2023-07-22T05:19:05;100685.91;;;23.14;46.05
81937;BME280;71432;56.558;9.036;2023-07-22T05:21:33;100685.09;;;23.14;46.12
81937;BME280;71432;56.558;9.036;2023-07-22T05:23:58;100673.69;;;23.13;46.30
81937;BME280;71432;56.558;9.036;2023-07-22T05:26:23;100683.28;;;23.14;46.27
81937;BME280;71432;56.558;9.036;2023-07-22T05:28:49;100679.81;;;23.14;46.06
81937;BME280;71432;56.558;9.036;2023-07-22T05:31:15;100690.22;;;23.15;46.19
81937;BME280;71432;56.558;9.036;2023-07-22T05:33:41;100685.91;;;23.14;46.00
81937;BME280;71432;56.558;9.036;2023-07-22T05:36:06;100690.22;;;23.15;46.49
81937;BME280;71432;56.558;9.036;2023-07-22T05:38:32;100692.34;;;23.12;46.47
81937;BME280;71432;56.558;9.036;2023-07-22T05:40:57;100698.13;;;23.15;46.39
81937;BME280;71432;56.558;9.036;2023-07-22T05:43:22;100694.16;;;23.11;46.43
81937;BME280;71432;56.558;9.036;2023-07-22T05:45:48;100692.34;;;23.12;46.59
81937;BME280;71432;56.558;9.036;2023-07-22T05:48:14;100695.84;;;23.12;46.17
81937;BME280;71432;56.558;9.036;2023-07-22T05:50:39;100697.66;;;23.20;46.09
81937;BME280;71432;56.558;9.036;2023-07-22T05:53:04;100696.31;;;23.16;46.07
81937;BME280;71432;56.558;9.036;2023-07-22T05:55:29;100692.53;;;23.18;46.09
81937;BME280;71432;56.558;9.036;2023-07-22T05:57:55;100702.25;;;23.18;46.31
81937;BME280;71432;56.558;9.036;2023-07-22T06:00:20;100700.13;;;23.21;46.30
81937;BME280;71432;56.558;9.036;2023-07-22T06:02:46;100694.84;;;23.21;46.42
81937;BME280;71432;56.558;9.036;2023-07-22T06:05:11;100703.09;;;23.26;46.00
81937;BME280;71432;56.558;9.036;2023-07-22T06:07:36;100692.53;;;23.26;45.99
81937;BME280;71432;56.558;9.036;2023-07-22T06:10:02;100707.56;;;23.34;46.08
81937;BME280;71432;56.558;9.036;2023-07-22T06:12:27;100698.81;;;23.33;45.79
81937;BME280;71432;56.558;9.036;2023-07-22T06:14:52;100703.44;;;23.31;46.12
81937;BME280;71432;56.558;9.036;2023-07-22T06:17:18;100709.88;;;23.29;46.03
81937;BME280;71432;56.558;9.036;2023-07-22T06:19:45;100701.97;;;23.29;46.26
81937;BME280;71432;56.558;9.036;2023-07-22T06:22:10;100699.97;;;23.31;46.10
81937;BME280;71432;56.558;9.036;2023-07-22T06:24:36;100703.78;;;23.28;46.09
81937;BME280;71432;56.558;9.036;2023-07-22T06:27:01;100705.25;;;23.31;46.14
81937;BME280;71432;56.558;9.036;2023-07-22T06:29:26;100699.81;;;23.32;46.19
81937;BME280;71432;56.558;9.036;2023-07-22T06:31:52;100707.91;;;23.39;45.95
81937;BME280;71432;56.558;9.036;2023-07-22T06:34:17;100702.44;;;23.40;45.98
81937;BME280;71432;56.558;9.036;2023-07-22T06:36:42;100702.16;;;23.43;45.79
81937;BME280;71432;56.558;9.036;2023-07-22T06:39:08;100704.63;;;23.45;45.78
81937;BME280;71432;56.558;9.036;2023-07-22T06:41:33;100696.19;;;23.41;46.05
81937;BME280;71432;56.558;9.036;2023-07-22T06:43:59;100693.56;;;23.49;46.02
81937;BME280;71432;56.558;9.036;2023-07-22T06:46:24;100689.28;;;23.48;45.71
81937;BME280;71432;56.558;9.036;2023-07-22T06:48:49;100697.53;;;23.54;45.61
81937;BME280;71432;56.558;9.036;2023-07-22T06:51:15;100700.03;;;23.55;45.70
81937;BME280;71432;56.558;9.036;2023-07-22T06:53:40;100697.56;;;23.62;45.83
81937;BME280;71432;56.558;9.036;2023-07-22T06:56:06;100684.16;;;23.63;45.67
81937;BME280;71432;56.558;9.036;2023-07-22T06:58:31;100689.63;;;23.70;45.35
81937;BME280;71432;56.558;9.036;2023-07-22T07:00:56;100690.78;;;23.75;45.43
81937;BME280;71432;56.558;9.036;2023-07-22T07:03:22;100691.75;;;23.82;45.30
81937;BME280;71432;56.558;9.036;2023-07-22T07:05:54;100691.25;;;23.87;45.19
81937;BME280;71432;56.558;9.036;2023-07-22T07:08:21;100694.72;;;23.96;45.45
81937;BME280;71432;56.558;9.036;2023-07-22T07:10:46;100699.97;;;24.04;45.35
81937;BME280;71432;56.558;9.036;2023-07-22T07:13:12;100694.84;;;24.10;45.17
81937;BME280;71432;56.558;9.036;2023-07-22T07:15:37;100694.50;;;24.21;45.11
81937;BME280;71432;56.558;9.036;2023-07-22T07:18:03;100701.44;;;24.30;44.65
81937;BME280;71432;56.558;9.036;2023-07-22T07:20:28;100699.09;;;24.35;44.62
81937;BME280;71432;56.558;9.036;2023-07-22T07:22:53;100697.47;;;24.34;44.22
81937;BME280;71432;56.558;9.036;2023-07-22T07:25:19;100701.25;;;24.40;44.38
81937;BME280;71432;56.558;9.036;2023-07-22T07:27:44;100706.22;;;24.43;44.32
81937;BME280;71432;56.558;9.036;2023-07-22T07:30:10;100709.84;;;24.42;44.16
81937;BME280;71432;56.558;9.036;2023-07-22T07:32:36;100726.38;;;24.44;43.90
81937;BME280;71432;56.558;9.036;2023-07-22T07:35:01;100730.34;;;24.48;44.04
81937;BME280;71432;56.558;9.036;2023-07-22T07:37:27;100722.72;;;24.45;44.08
81937;BME280;71432;56.558;9.036;2023-07-22T07:39:52;100727.69;;;24.48;44.29
81937;BME280;71432;56.558;9.036;2023-07-22T07:42:18;100728.19;;;24.52;44.25
81937;BME280;71432;56.558;9.036;2023-07-22T07:44:43;100741.88;;;24.55;44.13
81937;BME280;71432;56.558;9.036;2023-07-22T07:47:09;100740.72;;;24.58;44.18
81937;BME280;71432;56.558;9.036;2023-07-22T07:49:34;100740.38;;;24.61;43.83
81937;BME280;71432;56.558;9.036;2023-07-22T07:51:59;100736.06;;;24.68;43.78
81937;BME280;71432;56.558;9.036;2023-07-22T07:54:25;100737.19;;;24.73;43.88
81937;BME280;71432;56.558;9.036;2023-07-22T07:56:50;100730.25;;;24.72;43.91
81937;BME280;71432;56.558;9.036;2023-07-22T07:59:18;100733.34;;;24.76;43.86
81937;BME280;71432;56.558;9.036;2023-07-22T08:01:43;100735.84;;;24.77;43.89
81937;BME280;71432;56.558;9.036;2023-07-22T08:04:09;100728.56;;;24.79;44.05
81937;BME280;71432;56.558;9.036;2023-07-22T08:06:34;100738.97;;;24.81;43.98
81937;BME280;71432;56.558;9.036;2023-07-22T08:09:00;100742.63;;;24.88;46.20
81937;BME280;71432;56.558;9.036;2023-07-22T08:11:25;100734.31;;;24.91;43.77
81937;BME280;71432;56.558;9.036;2023-07-22T08:13:50;100738.47;;;24.94;43.90
81937;BME280;71432;56.558;9.036;2023-07-22T08:16:17;100738.63;;;24.92;43.79
81937;BME280;71432;56.558;9.036;2023-07-22T08:18:42;100729.03;;;24.91;43.70
81937;BME280;71432;56.558;9.036;2023-07-22T08:21:08;100732.81;;;24.97;43.59
81937;BME280;71432;56.558;9.036;2023-07-22T08:23:35;100732.00;;;24.96;43.66
81937;BME280;71432;56.558;9.036;2023-07-22T08:26:01;100734.94;;;25.01;43.11
81937;BME280;71432;56.558;9.036;2023-07-22T08:28:26;100733.28;;;25.00;43.39
81937;BME280;71432;56.558;9.036;2023-07-22T08:30:56;100734.47;;;24.98;43.62
81937;BME280;71432;56.558;9.036;2023-07-22T08:33:22;100741.22;;;25.00;43.25
81937;BME280;71432;56.558;9.036;2023-07-22T08:35:48;100744.50;;;25.10;43.58
81937;BME280;71432;56.558;9.036;2023-07-22T08:38:15;100730.44;;;25.10;43.26
81937;BME280;71432;56.558;9.036;2023-07-22T08:40:40;100735.50;;;25.19;43.16
81937;BME280;71432;56.558;9.036;2023-07-22T08:43:08;100739.97;;;25.19;43.02
81937;BME280;71432;56.558;9.036;2023-07-22T08:45:35;100745.28;;;25.19;42.71
81937;BME280;71432;56.558;9.036;2023-07-22T08:48:09;100744.91;;;25.22;42.72
81937;BME280;71432;56.558;9.036;2023-07-22T08:50:55;100740.28;;;25.24;42.86
81937;BME280;71432;56.558;9.036;2023-07-22T08:53:23;100746.41;;;25.24;42.68
81937;BME280;71432;56.558;9.036;2023-07-22T08:55:50;100747.88;;;25.27;42.45
81937;BME280;71432;56.558;9.036;2023-07-22T08:58:16;100741.09;;;25.24;42.82
81937;BME280;71432;56.558;9.036;2023-07-22T09:00:43;100738.78;;;25.21;42.70
81937;BME280;71432;56.558;9.036;2023-07-22T09:03:08;100744.63;;;25.17;42.20
81937;BME280;71432;56.558;9.036;2023-07-22T09:05:35;100742.47;;;25.12;42.56
81937;BME280;71432;56.558;9.036;2023-07-22T09:08:06;100757.59;;;25.04;42.03
81937;BME280;71432;56.558;9.036;2023-07-22T09:10:32;100759.16;;;24.98;41.91
81937;BME280;71432;56.558;9.036;2023-07-22T09:12:59;100751.41;;;24.89;41.55
81937;BME280;71432;56.558;9.036;2023-07-22T09:15:24;100748.22;;;24.85;41.74
81937;BME280;71432;56.558;9.036;2023-07-22T09:17:50;100751.22;;;24.82;41.46
81937;BME280;71432;56.558;9.036;2023-07-22T09:20:16;100752.09;;;24.74;41.71
81937;BME280;71432;56.558;9.036;2023-07-22T09:22:50;100752.56;;;24.78;41.95
81937;BME280;71432;56.558;9.036;2023-07-22T09:27:43;100743.63;;;24.79;41.67
81937;BME280;71432;56.558;9.036;2023-07-22T09:30:26;100744.59;;;24.86;42.39
81937;BME280;71432;56.558;9.036;2023-07-22T09:32:59;100746.41;;;24.94;42.24
81937;BME280;71432;56.558;9.036;2023-07-22T09:35:48;100748.25;;;24.93;42.23
81937;BME280;71432;56.558;9.036;2023-07-22T09:38:12;100746.06;;;24.97;41.87
81937;BME280;71432;56.558;9.036;2023-07-22T09:40:40;100747.19;;;25.02;41.40
81937;BME280;71432;56.558;9.036;2023-07-22T09:43:05;100737.94;;;24.98;41.68
81937;BME280;71432;56.558;9.036;2023-07-22T09:45:31;100750.75;;;24.78;42.50
81937;BME280;71432;56.558;9.036;2023-07-22T09:47:58;100742.00;;;24.70;42.78
81937;BME280;71432;56.558;9.036;2023-07-22T09:50:25;100744.03;;;24.60;41.87
81937;BME280;71432;56.558;9.036;2023-07-22T09:52:53;100736.75;;;24.62;41.40
81937;BME280;71432;56.558;9.036;2023-07-22T09:55:24;100740.44;;;24.53;41.48
81937;BME280;71432;56.558;9.036;2023-07-22T09:57:52;100741.41;;;24.52;40.76
81937;BME280;71432;56.558;9.036;2023-07-22T10:00:18;100744.22;;;24.50;41.07
81937;BME280;71432;56.558;9.036;2023-07-22T10:02:48;100744.19;;;24.58;40.90
81937;BME280;71432;56.558;9.036;2023-07-22T10:05:18;100744.88;;;24.52;39.78
81937;BME280;71432;56.558;9.036;2023-07-22T10:07:49;100753.50;;;24.46;40.15
81937;BME280;71432;56.558;9.036;2023-07-22T10:10:17;100768.41;;;24.39;40.62
81937;BME280;71432;56.558;9.036;2023-07-22T10:12:43;100760.97;;;24.34;41.12
81937;BME280;71432;56.558;9.036;2023-07-22T10:15:14;100755.84;;;24.33;41.73
81937;BME280;71432;56.558;9.036;2023-07-22T10:17:43;100761.47;;;24.22;41.76
81937;BME280;71432;56.558;9.036;2023-07-22T10:20:10;100752.56;;;23.82;42.84
81937;BME280;71432;56.558;9.036;2023-07-22T10:22:43;100758.34;;;23.86;42.68
81937;BME280;71432;56.558;9.036;2023-07-22T10:25:11;100757.97;;;23.48;43.69
81937;BME280;71432;56.558;9.036;2023-07-22T10:27:37;100765.09;;;23.56;44.24
81937;BME280;71432;56.558;9.036;2023-07-22T10:30:05;100751.38;;;23.85;43.31
81937;BME280;71432;56.558;9.036;2023-07-22T10:32:41;100754.03;;;23.85;43.42
81937;BME280;71432;56.558;9.036;2023-07-22T10:38:14;100745.44;;;23.91;42.65
81937;BME280;71432;56.558;9.036;2023-07-22T10:40:50;100755.19;;;23.82;42.39
81937;BME280;71432;56.558;9.036;2023-07-22T10:43:17;100755.53;;;23.79;42.71
81937;BME280;71432;56.558;9.036;2023-07-22T10:45:49;100761.63;;;23.47;41.85
81937;BME280;71432;56.558;9.036;2023-07-22T10:48:15;100753.63;;;23.31;42.42
81937;BME280;71432;56.558;9.036;2023-07-22T10:50:45;100767.16;;;23.36;42.30
81937;BME280;71432;56.558;9.036;2023-07-22T11:04:12;100764.38;;;23.30;41.11
81937;BME280;71432;56.558;9.036;2023-07-22T11:14:32;100766.84;;;23.39;41.98
81937;BME280;71432;56.558;9.036;2023-07-22T11:17:02;100765.03;;;23.40;41.73
81937;BME280;71432;56.558;9.036;2023-07-22T11:19:31;100774.00;;;23.55;41.75
81937;BME280;71432;56.558;9.036;2023-07-22T11:21:58;100775.66;;;23.56;42.02
81937;BME280;71432;56.558;9.036;2023-07-22T11:24:24;100771.22;;;23.73;41.87
81937;BME280;71432;56.558;9.036;2023-07-22T11:26:50;100772.22;;;23.80;42.17
81937;BME280;71432;56.558;9.036;2023-07-22T11:29:16;100766.59;;;23.83;41.78
81937;BME280;71432;56.558;9.036;2023-07-22T11:31:44;100762.28;;;23.90;41.82
81937;BME280;71432;56.558;9.036;2023-07-22T11:34:11;100761.66;;;23.88;41.90
81937;BME280;71432;56.558;9.036;2023-07-22T11:36:37;100763.28;;;23.81;41.96
81937;BME280;71432;56.558;9.036;2023-07-22T11:39:07;100760.16;;;23.85;41.69
81937;BME280;71432;56.558;9.036;2023-07-22T11:41:33;100759.97;;;23.95;41.42
81937;BME280;71432;56.558;9.036;2023-07-22T11:44:03;100764.63;;;24.01;41.21
81937;BME280;71432;56.558;9.036;2023-07-22T11:46:34;100763.81;;;23.92;41.36
81937;BME280;71432;56.558;9.036;2023-07-22T11:48:59;100763.47;;;23.87;40.84
81937;BME280;71432;56.558;9.036;2023-07-22T11:51:25;100761.97;;;23.93;40.29
81937;BME280;71432;56.558;9.036;2023-07-22T11:53:51;100762.81;;;24.02;40.85
81937;BME280;71432;56.558;9.036;2023-07-22T11:56:26;100768.09;;;24.02;40.29
81937;BME280;71432;56.558;9.036;2023-07-22T11:58:53;100767.28;;;23.93;41.46
81937;BME280;71432;56.558;9.036;2023-07-22T12:01:19;100768.91;;;24.02;40.52
81937;BME280;71432;56.558;9.036;2023-07-22T12:03:45;100763.94;;;24.15;40.62
81937;BME280;71432;56.558;9.036;2023-07-22T12:06:11;100752.03;;;24.03;40.19
81937;BME280;71432;56.558;9.036;2023-07-22T12:08:42;100758.97;;;24.12;40.13
81937;BME280;71432;56.558;9.036;2023-07-22T12:11:08;100758.16;;;23.96;40.23
81937;BME280;71432;56.558;9.036;2023-07-22T12:13:37;100766.59;;;23.99;40.33
81937;BME280;71432;56.558;9.036;2023-07-22T12:16:04;100762.31;;;24.06;40.03
81937;BME280;71432;56.558;9.036;2023-07-22T12:18:46;100760.47;;;24.15;40.19
81937;BME280;71432;56.558;9.036;2023-07-22T12:21:13;100756.84;;;24.00;39.90
81937;BME280;71432;56.558;9.036;2023-07-22T12:23:39;100756.53;;;24.03;40.19
81937;BME280;71432;56.558;9.036;2023-07-22T12:26:05;100761.63;;;24.12;40.27
81937;BME280;71432;56.558;9.036;2023-07-22T12:28:30;100752.72;;;24.05;40.46
81937;BME280;71432;56.558;9.036;2023-07-22T12:30:55;100757.81;;;23.99;41.02
81937;BME280;71432;56.558;9.036;2023-07-22T12:33:23;100774.88;;;23.88;41.39
81937;BME280;71432;56.558;9.036;2023-07-22T12:35:49;100782.81;;;23.80;41.38
81937;BME280;71432;56.558;9.036;2023-07-22T12:38:14;100772.88;;;23.74;41.53
81937;BME280;71432;56.558;9.036;2023-07-22T12:40:40;100781.78;;;23.57;41.56
81937;BME280;71432;56.558;9.036;2023-07-22T12:43:05;100787.91;;;23.73;41.53
81937;BME280;71432;56.558;9.036;2023-07-22T12:45:30;100787.91;;;23.73;41.31
81937;BME280;71432;56.558;9.036;2023-07-22T12:47:56;100793.03;;;23.75;41.17
81937;BME280;71432;56.558;9.036;2023-07-22T12:50:21;100793.03;;;23.83;41.28
81937;BME280;71432;56.558;9.036;2023-07-22T12:52:47;100801.91;;;23.58;41.68
81937;BME280;71432;56.558;9.036;2023-07-22T12:55:12;100801.63;;;23.77;41.29
81937;BME280;71432;56.558;9.036;2023-07-22T12:57:38;100802.94;;;23.81;41.50
81937;BME280;71432;56.558;9.036;2023-07-22T13:00:03;100802.44;;;23.85;41.17
81937;BME280;71432;56.558;9.036;2023-07-22T13:02:34;100796.50;;;23.83;41.39
81937;BME280;71432;56.558;9.036;2023-07-22T13:04:59;100803.13;;;23.96;41.37
81937;BME280;71432;56.558;9.036;2023-07-22T13:07:24;100800.63;;;23.94;41.56
81937;BME280;71432;56.558;9.036;2023-07-22T13:09:52;100790.06;;;23.86;41.82